sensor_id;sensor_type;location;lat;lon;timestamp;P1;durP1;ratioP1;P2;durP2;ratioP2
68806;SDS011;55800;54.272;18.558;2023-08-06T00:04:02;6.38;;;2.97;;
68806;SDS011;55800;54.272;18.558;2023-08-06T00:06:31;6.50;;;2.67;;
68806;SDS011;55800;54.272;18.558;2023-08-06T00:09:01;5.28;;;2.50;;
68806;SDS011;55800;54.272;18.558;2023-08-06T00:11:30;7.68;;;3.33;;
68806;SDS011;55800;54.272;18.558;2023-08-06T00:14:02;5.47;;;2.65;;
68806;SDS011;55800;54.272;18.558;2023-08-06T00:16:34;5.28;;;3.10;;
68806;SDS011;55800;54.272;18.558;2023-08-06T00:19:05;6.85;;;3.80;;
68806;SDS011;55800;54.272;18.558;2023-08-06T00:24:06;4.43;;;2.70;;
68806;SDS011;55800;54.272;18.558;2023-08-06T00:26:35;4.53;;;2.58;;
68806;SDS011;55800;54.272;18.558;2023-08-06T00:29:06;5.43;;;3.28;;
68806;SDS011;55800;54.272;18.558;2023-08-06T00:31:35;6.38;;;3.25;;
68806;SDS011;55800;54.272;18.558;2023-08-06T00:34:04;8.15;;;3.42;;
68806;SDS011;55800;54.272;18.558;2023-08-06T00:36:34;7.78;;;3.35;;
68806;SDS011;55800;54.272;18.558;2023-08-06T00:39:04;8.57;;;3.00;;
68806;SDS011;55800;54.272;18.558;2023-08-06T00:41:33;8.65;;;3.33;;
68806;SDS011;55800;54.272;18.558;2023-08-06T00:44:03;9.20;;;3.15;;
68806;SDS011;55800;54.272;18.558;2023-08-06T00:46:34;8.23;;;3.92;;
68806;SDS011;55800;54.272;18.558;2023-08-06T00:49:03;7.07;;;3.50;;
68806;SDS011;55800;54.272;18.558;2023-08-06T00:51:34;9.02;;;3.83;;
68806;SDS011;55800;54.272;18.558;2023-08-06T00:54:04;7.50;;;3.50;;
68806;SDS011;55800;54.272;18.558;2023-08-06T00:56:33;6.15;;;3.25;;
68806;SDS011;55800;54.272;18.558;2023-08-06T00:59:06;8.63;;;3.47;;
68806;SDS011;55800;54.272;18.558;2023-08-06T01:01:36;7.70;;;3.42;;
68806;SDS011;55800;54.272;18.558;2023-08-06T01:04:05;10.55;;;4.10;;
68806;SDS011;55800;54.272;18.558;2023-08-06T01:06:39;5.85;;;3.38;;
68806;SDS011;55800;54.272;18.558;2023-08-06T01:09:21;8.02;;;3.15;;
68806;SDS011;55800;54.272;18.558;2023-08-06T01:12:02;7.40;;;3.47;;
68806;SDS011;55800;54.272;18.558;2023-08-06T01:14:42;9.73;;;3.72;;
68806;SDS011;55800;54.272;18.558;2023-08-06T01:17:20;8.93;;;3.97;;
68806;SDS011;55800;54.272;18.558;2023-08-06T01:19:54;6.75;;;3.13;;
68806;SDS011;55800;54.272;18.558;2023-08-06T01:24:55;6.93;;;3.58;;
68806;SDS011;55800;54.272;18.558;2023-08-06T01:27:25;9.02;;;3.25;;
68806;SDS011;55800;54.272;18.558;2023-08-06T01:30:02;10.70;;;3.72;;
68806;SDS011;55800;54.272;18.558;2023-08-06T01:32:34;10.07;;;3.78;;
68806;SDS011;55800;54.272;18.558;2023-08-06T01:35:07;5.35;;;2.95;;
68806;SDS011;55800;54.272;18.558;2023-08-06T01:37:41;9.73;;;3.40;;
68806;SDS011;55800;54.272;18.558;2023-08-06T01:40:12;12.05;;;4.70;;
68806;SDS011;55800;54.272;18.558;2023-08-06T01:42:41;10.82;;;3.60;;
68806;SDS011;55800;54.272;18.558;2023-08-06T01:45:11;8.43;;;3.90;;
68806;SDS011;55800;54.272;18.558;2023-08-06T01:47:40;6.50;;;4.05;;
68806;SDS011;55800;54.272;18.558;2023-08-06T01:50:09;6.85;;;3.33;;
68806;SDS011;55800;54.272;18.558;2023-08-06T01:55:09;7.60;;;3.35;;
68806;SDS011;55800;54.272;18.558;2023-08-06T01:57:39;6.55;;;3.00;;
68806;SDS011;55800;54.272;18.558;2023-08-06T02:00:08;6.95;;;3.13;;
68806;SDS011;55800;54.272;18.558;2023-08-06T02:02:38;7.88;;;3.13;;
68806;SDS011;55800;54.272;18.558;2023-08-06T02:05:09;9.93;;;4.05;;
68806;SDS011;55800;54.272;18.558;2023-08-06T02:07:39;7.45;;;2.88;;
68806;SDS011;55800;54.272;18.558;2023-08-06T02:10:10;4.63;;;2.50;;
68806;SDS011;55800;54.272;18.558;2023-08-06T02:12:39;7.65;;;3.20;;
68806;SDS011;55800;54.272;18.558;2023-08-06T02:15:09;5.72;;;3.28;;
68806;SDS011;55800;54.272;18.558;2023-08-06T02:17:38;7.97;;;3.30;;
68806;SDS011;55800;54.272;18.558;2023-08-06T02:20:08;7.57;;;2.75;;
68806;SDS011;55800;54.272;18.558;2023-08-06T02:22:38;10.70;;;3.22;;
68806;SDS011;55800;54.272;18.558;2023-08-06T02:25:08;6.88;;;3.17;;
68806;SDS011;55800;54.272;18.558;2023-08-06T02:27:38;6.55;;;2.80;;
68806;SDS011;55800;54.272;18.558;2023-08-06T02:33:58;7.10;;;3.25;;
68806;SDS011;55800;54.272;18.558;2023-08-06T02:36:27;5.90;;;2.33;;
68806;SDS011;55800;54.272;18.558;2023-08-06T02:38:58;5.68;;;2.80;;
68806;SDS011;55800;54.272;18.558;2023-08-06T02:41:31;6.28;;;2.85;;
68806;SDS011;55800;54.272;18.558;2023-08-06T02:44:00;6.43;;;3.03;;
68806;SDS011;55800;54.272;18.558;2023-08-06T02:46:29;8.90;;;3.53;;
68806;SDS011;55800;54.272;18.558;2023-08-06T02:56:26;5.70;;;2.53;;
68806;SDS011;55800;54.272;18.558;2023-08-06T02:59:19;7.07;;;3.47;;
68806;SDS011;55800;54.272;18.558;2023-08-06T03:02:08;5.22;;;2.70;;
68806;SDS011;55800;54.272;18.558;2023-08-06T03:04:55;7.85;;;3.33;;
68806;SDS011;55800;54.272;18.558;2023-08-06T03:07:29;5.00;;;3.22;;
68806;SDS011;55800;54.272;18.558;2023-08-06T03:10:05;7.22;;;2.88;;
68806;SDS011;55800;54.272;18.558;2023-08-06T03:12:36;5.28;;;3.08;;
68806;SDS011;55800;54.272;18.558;2023-08-06T03:15:07;4.63;;;2.92;;
68806;SDS011;55800;54.272;18.558;2023-08-06T03:17:38;6.97;;;2.50;;
68806;SDS011;55800;54.272;18.558;2023-08-06T03:20:10;4.68;;;2.42;;
68806;SDS011;55800;54.272;18.558;2023-08-06T03:22:40;4.72;;;2.40;;
68806;SDS011;55800;54.272;18.558;2023-08-06T03:25:10;6.47;;;3.13;;
68806;SDS011;55800;54.272;18.558;2023-08-06T03:27:42;4.07;;;2.42;;
68806;SDS011;55800;54.272;18.558;2023-08-06T03:30:15;13.25;;;3.95;;
68806;SDS011;55800;54.272;18.558;2023-08-06T03:32:44;7.15;;;3.97;;
68806;SDS011;55800;54.272;18.558;2023-08-06T03:35:17;7.28;;;3.60;;
68806;SDS011;55800;54.272;18.558;2023-08-06T03:37:46;7.85;;;4.13;;
68806;SDS011;55800;54.272;18.558;2023-08-06T03:40:16;11.35;;;3.88;;
68806;SDS011;55800;54.272;18.558;2023-08-06T03:42:46;8.35;;;3.92;;
68806;SDS011;55800;54.272;18.558;2023-08-06T03:45:17;6.13;;;3.83;;
68806;SDS011;55800;54.272;18.558;2023-08-06T03:47:46;9.10;;;3.80;;
68806;SDS011;55800;54.272;18.558;2023-08-06T03:50:17;7.05;;;3.88;;
68806;SDS011;55800;54.272;18.558;2023-08-06T03:52:46;5.28;;;3.33;;
68806;SDS011;55800;54.272;18.558;2023-08-06T03:57:45;10.65;;;3.60;;
68806;SDS011;55800;54.272;18.558;2023-08-06T04:00:15;11.35;;;4.20;;
68806;SDS011;55800;54.272;18.558;2023-08-06T04:02:51;10.30;;;4.60;;
68806;SDS011;55800;54.272;18.558;2023-08-06T04:05:20;9.52;;;4.18;;
68806;SDS011;55800;54.272;18.558;2023-08-06T04:07:50;6.65;;;4.20;;
68806;SDS011;55800;54.272;18.558;2023-08-06T04:10:19;8.77;;;4.25;;
68806;SDS011;55800;54.272;18.558;2023-08-06T04:12:49;10.38;;;5.15;;
68806;SDS011;55800;54.272;18.558;2023-08-06T04:15:20;6.28;;;4.05;;
68806;SDS011;55800;54.272;18.558;2023-08-06T04:17:54;10.52;;;4.45;;
68806;SDS011;55800;54.272;18.558;2023-08-06T04:20:24;14.98;;;4.82;;
68806;SDS011;55800;54.272;18.558;2023-08-06T04:22:54;15.43;;;4.78;;
68806;SDS011;55800;54.272;18.558;2023-08-06T04:25:23;8.15;;;4.30;;
68806;SDS011;55800;54.272;18.558;2023-08-06T04:27:53;9.63;;;4.60;;
68806;SDS011;55800;54.272;18.558;2023-08-06T04:30:24;10.75;;;4.95;;
68806;SDS011;55800;54.272;18.558;2023-08-06T04:32:56;10.70;;;4.28;;
68806;SDS011;55800;54.272;18.558;2023-08-06T04:35:26;7.40;;;4.43;;
68806;SDS011;55800;54.272;18.558;2023-08-06T04:37:56;12.45;;;4.32;;
68806;SDS011;55800;54.272;18.558;2023-08-06T04:40:25;11.80;;;4.97;;
68806;SDS011;55800;54.272;18.558;2023-08-06T04:42:55;19.40;;;5.28;;
68806;SDS011;55800;54.272;18.558;2023-08-06T04:45:26;11.48;;;4.72;;
68806;SDS011;55800;54.272;18.558;2023-08-06T04:47:55;8.27;;;4.15;;
68806;SDS011;55800;54.272;18.558;2023-08-06T04:52:53;11.50;;;5.10;;
68806;SDS011;55800;54.272;18.558;2023-08-06T04:57:52;13.20;;;5.63;;
68806;SDS011;55800;54.272;18.558;2023-08-06T05:02:52;13.88;;;5.25;;
68806;SDS011;55800;54.272;18.558;2023-08-06T05:05:21;13.15;;;5.80;;
68806;SDS011;55800;54.272;18.558;2023-08-06T05:07:50;12.55;;;5.35;;
68806;SDS011;55800;54.272;18.558;2023-08-06T05:10:24;9.18;;;5.30;;
68806;SDS011;55800;54.272;18.558;2023-08-06T05:12:54;9.75;;;4.93;;
68806;SDS011;55800;54.272;18.558;2023-08-06T05:15:23;10.52;;;6.00;;
68806;SDS011;55800;54.272;18.558;2023-08-06T05:17:56;14.77;;;5.85;;
68806;SDS011;55800;54.272;18.558;2023-08-06T05:20:25;11.13;;;6.13;;
68806;SDS011;55800;54.272;18.558;2023-08-06T05:22:54;14.13;;;6.18;;
68806;SDS011;55800;54.272;18.558;2023-08-06T05:25:24;12.95;;;7.25;;
68806;SDS011;55800;54.272;18.558;2023-08-06T05:27:53;10.50;;;6.97;;
68806;SDS011;55800;54.272;18.558;2023-08-06T05:30:22;10.80;;;6.35;;
68806;SDS011;55800;54.272;18.558;2023-08-06T05:32:52;11.10;;;4.70;;
68806;SDS011;55800;54.272;18.558;2023-08-06T05:35:23;9.15;;;4.90;;
68806;SDS011;55800;54.272;18.558;2023-08-06T05:37:53;6.90;;;4.15;;
68806;SDS011;55800;54.272;18.558;2023-08-06T05:40:23;11.63;;;4.53;;
68806;SDS011;55800;54.272;18.558;2023-08-06T05:42:53;10.45;;;5.72;;
68806;SDS011;55800;54.272;18.558;2023-08-06T05:45:23;12.30;;;6.55;;
68806;SDS011;55800;54.272;18.558;2023-08-06T05:47:52;8.50;;;6.28;;
68806;SDS011;55800;54.272;18.558;2023-08-06T05:50:26;9.48;;;4.32;;
68806;SDS011;55800;54.272;18.558;2023-08-06T05:52:55;9.20;;;4.70;;
68806;SDS011;55800;54.272;18.558;2023-08-06T05:55:27;11.00;;;4.55;;
68806;SDS011;55800;54.272;18.558;2023-08-06T05:57:58;9.02;;;4.13;;
68806;SDS011;55800;54.272;18.558;2023-08-06T06:00:28;7.30;;;5.03;;
68806;SDS011;55800;54.272;18.558;2023-08-06T06:02:59;8.45;;;4.70;;
68806;SDS011;55800;54.272;18.558;2023-08-06T06:05:30;7.82;;;3.75;;
68806;SDS011;55800;54.272;18.558;2023-08-06T06:07:59;6.40;;;4.63;;
68806;SDS011;55800;54.272;18.558;2023-08-06T06:10:30;7.85;;;4.07;;
68806;SDS011;55800;54.272;18.558;2023-08-06T06:13:00;6.13;;;3.58;;
68806;SDS011;55800;54.272;18.558;2023-08-06T06:15:29;7.22;;;4.00;;
68806;SDS011;55800;54.272;18.558;2023-08-06T06:17:59;9.35;;;4.25;;
68806;SDS011;55800;54.272;18.558;2023-08-06T06:20:32;7.70;;;4.25;;
68806;SDS011;55800;54.272;18.558;2023-08-06T06:23:05;8.57;;;4.15;;
68806;SDS011;55800;54.272;18.558;2023-08-06T06:25:35;9.18;;;5.00;;
68806;SDS011;55800;54.272;18.558;2023-08-06T06:28:05;14.85;;;5.25;;
68806;SDS011;55800;54.272;18.558;2023-08-06T06:30:35;13.30;;;5.75;;
68806;SDS011;55800;54.272;18.558;2023-08-06T06:33:06;8.48;;;5.20;;
68806;SDS011;55800;54.272;18.558;2023-08-06T06:35:38;10.52;;;5.82;;
68806;SDS011;55800;54.272;18.558;2023-08-06T06:38:09;12.32;;;6.15;;
68806;SDS011;55800;54.272;18.558;2023-08-06T06:40:41;14.18;;;6.63;;
68806;SDS011;55800;54.272;18.558;2023-08-06T06:43:12;15.57;;;6.50;;
68806;SDS011;55800;54.272;18.558;2023-08-06T06:45:42;13.30;;;7.32;;
68806;SDS011;55800;54.272;18.558;2023-08-06T06:48:12;22.45;;;8.95;;
68806;SDS011;55800;54.272;18.558;2023-08-06T06:50:46;23.30;;;7.95;;
68806;SDS011;55800;54.272;18.558;2023-08-06T06:53:18;18.88;;;7.55;;
68806;SDS011;55800;54.272;18.558;2023-08-06T06:55:47;17.05;;;8.02;;
68806;SDS011;55800;54.272;18.558;2023-08-06T06:58:17;16.05;;;7.88;;
68806;SDS011;55800;54.272;18.558;2023-08-06T07:00:47;17.90;;;9.57;;
68806;SDS011;55800;54.272;18.558;2023-08-06T07:03:19;19.48;;;8.70;;
68806;SDS011;55800;54.272;18.558;2023-08-06T07:05:51;18.90;;;9.93;;
68806;SDS011;55800;54.272;18.558;2023-08-06T07:08:25;17.70;;;8.70;;
68806;SDS011;55800;54.272;18.558;2023-08-06T07:10:59;13.88;;;7.53;;
68806;SDS011;55800;54.272;18.558;2023-08-06T07:13:30;12.10;;;7.05;;
68806;SDS011;55800;54.272;18.558;2023-08-06T07:15:59;11.27;;;5.75;;
68806;SDS011;55800;54.272;18.558;2023-08-06T07:18:29;10.20;;;6.60;;
68806;SDS011;55800;54.272;18.558;2023-08-06T07:20:59;10.80;;;6.45;;
68806;SDS011;55800;54.272;18.558;2023-08-06T07:23:29;12.35;;;6.63;;
68806;SDS011;55800;54.272;18.558;2023-08-06T07:25:58;12.75;;;7.95;;
68806;SDS011;55800;54.272;18.558;2023-08-06T07:28:28;14.65;;;8.68;;
68806;SDS011;55800;54.272;18.558;2023-08-06T07:30:57;13.95;;;7.63;;
68806;SDS011;55800;54.272;18.558;2023-08-06T07:33:27;17.15;;;9.13;;
68806;SDS011;55800;54.272;18.558;2023-08-06T07:35:56;14.95;;;7.65;;
68806;SDS011;55800;54.272;18.558;2023-08-06T07:38:27;14.48;;;8.23;;
68806;SDS011;55800;54.272;18.558;2023-08-06T07:40:57;10.65;;;7.55;;
68806;SDS011;55800;54.272;18.558;2023-08-06T07:43:30;9.77;;;6.75;;
68806;SDS011;55800;54.272;18.558;2023-08-06T07:46:00;15.45;;;7.43;;
68806;SDS011;55800;54.272;18.558;2023-08-06T07:48:30;11.75;;;5.90;;
68806;SDS011;55800;54.272;18.558;2023-08-06T07:50:59;10.75;;;6.97;;
68806;SDS011;55800;54.272;18.558;2023-08-06T07:53:30;11.23;;;5.95;;
68806;SDS011;55800;54.272;18.558;2023-08-06T07:55:59;11.25;;;6.30;;
68806;SDS011;55800;54.272;18.558;2023-08-06T07:58:29;11.68;;;6.97;;
68806;SDS011;55800;54.272;18.558;2023-08-06T08:00:58;13.68;;;7.03;;
68806;SDS011;55800;54.272;18.558;2023-08-06T08:03:31;12.75;;;7.45;;
68806;SDS011;55800;54.272;18.558;2023-08-06T08:06:01;12.98;;;7.75;;
68806;SDS011;55800;54.272;18.558;2023-08-06T08:08:32;11.35;;;6.85;;
68806;SDS011;55800;54.272;18.558;2023-08-06T08:11:05;14.68;;;7.65;;
68806;SDS011;55800;54.272;18.558;2023-08-06T08:13:35;11.73;;;7.68;;
68806;SDS011;55800;54.272;18.558;2023-08-06T08:16:05;14.68;;;7.28;;
68806;SDS011;55800;54.272;18.558;2023-08-06T08:18:34;11.57;;;7.32;;
68806;SDS011;55800;54.272;18.558;2023-08-06T08:21:04;12.07;;;6.60;;
68806;SDS011;55800;54.272;18.558;2023-08-06T08:23:34;9.60;;;6.22;;
68806;SDS011;55800;54.272;18.558;2023-08-06T08:26:05;11.40;;;6.30;;
68806;SDS011;55800;54.272;18.558;2023-08-06T08:28:35;11.18;;;6.90;;
68806;SDS011;55800;54.272;18.558;2023-08-06T08:31:07;9.00;;;5.97;;
68806;SDS011;55800;54.272;18.558;2023-08-06T08:33:39;13.48;;;6.85;;
68806;SDS011;55800;54.272;18.558;2023-08-06T08:36:09;10.80;;;6.55;;
68806;SDS011;55800;54.272;18.558;2023-08-06T08:38:39;11.18;;;6.65;;
68806;SDS011;55800;54.272;18.558;2023-08-06T08:41:09;11.82;;;7.03;;
68806;SDS011;55800;54.272;18.558;2023-08-06T08:43:39;13.48;;;8.45;;
68806;SDS011;55800;54.272;18.558;2023-08-06T08:46:09;13.70;;;6.78;;
68806;SDS011;55800;54.272;18.558;2023-08-06T08:48:42;11.68;;;7.65;;
68806;SDS011;55800;54.272;18.558;2023-08-06T08:51:12;12.65;;;7.20;;
68806;SDS011;55800;54.272;18.558;2023-08-06T08:53:44;12.95;;;7.05;;
68806;SDS011;55800;54.272;18.558;2023-08-06T08:56:15;12.38;;;7.55;;
68806;SDS011;55800;54.272;18.558;2023-08-06T08:58:45;13.68;;;8.10;;
68806;SDS011;55800;54.272;18.558;2023-08-06T09:01:15;11.73;;;7.60;;
68806;SDS011;55800;54.272;18.558;2023-08-06T09:03:46;16.95;;;7.63;;
68806;SDS011;55800;54.272;18.558;2023-08-06T09:06:16;15.35;;;7.95;;
68806;SDS011;55800;54.272;18.558;2023-08-06T09:08:51;13.73;;;8.45;;
68806;SDS011;55800;54.272;18.558;2023-08-06T09:11:25;11.30;;;8.20;;
68806;SDS011;55800;54.272;18.558;2023-08-06T09:13:55;12.18;;;7.22;;
68806;SDS011;55800;54.272;18.558;2023-08-06T09:16:30;10.98;;;8.15;;
68806;SDS011;55800;54.272;18.558;2023-08-06T09:19:06;14.43;;;6.80;;
68806;SDS011;55800;54.272;18.558;2023-08-06T09:21:36;13.10;;;7.57;;
68806;SDS011;55800;54.272;18.558;2023-08-06T09:24:08;12.65;;;7.22;;
68806;SDS011;55800;54.272;18.558;2023-08-06T09:26:39;13.70;;;7.78;;
68806;SDS011;55800;54.272;18.558;2023-08-06T09:29:11;14.40;;;8.85;;
68806;SDS011;55800;54.272;18.558;2023-08-06T09:31:42;11.93;;;8.10;;
68806;SDS011;55800;54.272;18.558;2023-08-06T09:34:14;13.73;;;8.02;;
68806;SDS011;55800;54.272;18.558;2023-08-06T09:36:46;10.60;;;7.75;;
68806;SDS011;55800;54.272;18.558;2023-08-06T09:39:21;10.15;;;7.07;;
68806;SDS011;55800;54.272;18.558;2023-08-06T09:41:56;11.80;;;8.77;;
68806;SDS011;55800;54.272;18.558;2023-08-06T09:44:30;12.13;;;8.43;;
68806;SDS011;55800;54.272;18.558;2023-08-06T09:47:01;11.90;;;8.02;;
68806;SDS011;55800;54.272;18.558;2023-08-06T09:49:40;11.98;;;8.32;;
68806;SDS011;55800;54.272;18.558;2023-08-06T09:52:13;13.27;;;8.05;;
68806;SDS011;55800;54.272;18.558;2023-08-06T09:54:44;12.63;;;8.18;;
68806;SDS011;55800;54.272;18.558;2023-08-06T09:57:15;13.27;;;7.50;;
68806;SDS011;55800;54.272;18.558;2023-08-06T09:59:45;14.05;;;7.78;;
68806;SDS011;55800;54.272;18.558;2023-08-06T10:02:15;13.07;;;6.97;;
68806;SDS011;55800;54.272;18.558;2023-08-06T10:04:45;12.45;;;7.63;;
68806;SDS011;55800;54.272;18.558;2023-08-06T10:07:21;11.30;;;7.28;;
68806;SDS011;55800;54.272;18.558;2023-08-06T10:09:53;10.05;;;7.15;;
68806;SDS011;55800;54.272;18.558;2023-08-06T10:12:22;10.35;;;7.47;;
68806;SDS011;55800;54.272;18.558;2023-08-06T10:14:55;11.40;;;7.18;;
68806;SDS011;55800;54.272;18.558;2023-08-06T10:17:32;9.77;;;7.43;;
68806;SDS011;55800;54.272;18.558;2023-08-06T10:20:17;12.18;;;7.10;;
68806;SDS011;55800;54.272;18.558;2023-08-06T10:22:59;11.85;;;7.32;;
68806;SDS011;55800;54.272;18.558;2023-08-06T10:25:34;11.60;;;8.00;;
68806;SDS011;55800;54.272;18.558;2023-08-06T10:28:08;9.98;;;7.65;;
68806;SDS011;55800;54.272;18.558;2023-08-06T10:30:44;12.10;;;6.72;;
68806;SDS011;55800;54.272;18.558;2023-08-06T10:33:14;13.90;;;7.75;;
68806;SDS011;55800;54.272;18.558;2023-08-06T10:35:44;14.52;;;8.95;;
68806;SDS011;55800;54.272;18.558;2023-08-06T10:38:33;11.60;;;8.15;;
68806;SDS011;55800;54.272;18.558;2023-08-06T10:41:06;11.70;;;8.13;;
68806;SDS011;55800;54.272;18.558;2023-08-06T10:43:44;12.30;;;8.18;;
68806;SDS011;55800;54.272;18.558;2023-08-06T10:46:23;10.95;;;8.25;;
68806;SDS011;55800;54.272;18.558;2023-08-06T10:49:03;13.38;;;8.82;;
68806;SDS011;55800;54.272;18.558;2023-08-06T10:51:34;12.98;;;8.55;;
68806;SDS011;55800;54.272;18.558;2023-08-06T10:54:04;15.00;;;8.98;;
68806;SDS011;55800;54.272;18.558;2023-08-06T10:56:39;12.85;;;7.90;;
68806;SDS011;55800;54.272;18.558;2023-08-06T10:59:10;13.20;;;9.05;;
68806;SDS011;55800;54.272;18.558;2023-08-06T11:01:43;11.77;;;8.80;;
68806;SDS011;55800;54.272;18.558;2023-08-06T11:04:13;11.52;;;8.25;;
68806;SDS011;55800;54.272;18.558;2023-08-06T11:06:44;12.10;;;9.15;;
68806;SDS011;55800;54.272;18.558;2023-08-06T11:09:21;11.63;;;8.70;;
68806;SDS011;55800;54.272;18.558;2023-08-06T11:11:52;13.02;;;8.57;;
68806;SDS011;55800;54.272;18.558;2023-08-06T11:14:21;12.43;;;9.15;;
68806;SDS011;55800;54.272;18.558;2023-08-06T11:16:51;13.07;;;9.18;;
68806;SDS011;55800;54.272;18.558;2023-08-06T11:19:22;14.05;;;8.68;;
68806;SDS011;55800;54.272;18.558;2023-08-06T11:21:52;13.98;;;9.85;;
68806;SDS011;55800;54.272;18.558;2023-08-06T11:24:23;12.25;;;8.85;;
68806;SDS011;55800;54.272;18.558;2023-08-06T11:26:54;15.05;;;10.18;;
68806;SDS011;55800;54.272;18.558;2023-08-06T11:29:25;15.02;;;10.13;;
68806;SDS011;55800;54.272;18.558;2023-08-06T11:32:02;15.55;;;10.23;;
68806;SDS011;55800;54.272;18.558;2023-08-06T11:34:32;11.18;;;9.07;;
68806;SDS011;55800;54.272;18.558;2023-08-06T11:37:02;12.45;;;9.13;;
68806;SDS011;55800;54.272;18.558;2023-08-06T11:39:46;15.00;;;10.20;;
68806;SDS011;55800;54.272;18.558;2023-08-06T11:45:23;13.95;;;9.98;;
68806;SDS011;55800;54.272;18.558;2023-08-06T11:47:53;14.52;;;10.30;;
68806;SDS011;55800;54.272;18.558;2023-08-06T11:50:23;16.13;;;9.95;;
68806;SDS011;55800;54.272;18.558;2023-08-06T11:52:53;18.30;;;10.68;;
68806;SDS011;55800;54.272;18.558;2023-08-06T11:55:24;14.90;;;9.95;;
68806;SDS011;55800;54.272;18.558;2023-08-06T11:57:57;12.55;;;9.80;;
68806;SDS011;55800;54.272;18.558;2023-08-06T12:00:26;15.15;;;11.25;;
68806;SDS011;55800;54.272;18.558;2023-08-06T12:02:57;12.43;;;10.70;;
68806;SDS011;55800;54.272;18.558;2023-08-06T12:05:29;14.73;;;10.43;;
68806;SDS011;55800;54.272;18.558;2023-08-06T12:08:00;14.52;;;11.05;;
68806;SDS011;55800;54.272;18.558;2023-08-06T12:10:31;14.13;;;9.95;;
68806;SDS011;55800;54.272;18.558;2023-08-06T12:13:02;17.08;;;10.60;;
68806;SDS011;55800;54.272;18.558;2023-08-06T12:15:32;14.48;;;10.95;;
68806;SDS011;55800;54.272;18.558;2023-08-06T12:18:01;14.98;;;10.48;;
68806;SDS011;55800;54.272;18.558;2023-08-06T12:20:31;14.20;;;10.80;;
68806;SDS011;55800;54.272;18.558;2023-08-06T12:23:00;13.02;;;9.90;;
68806;SDS011;55800;54.272;18.558;2023-08-06T12:25:32;16.73;;;10.95;;
68806;SDS011;55800;54.272;18.558;2023-08-06T12:28:03;16.33;;;10.82;;
68806;SDS011;55800;54.272;18.558;2023-08-06T12:30:34;14.98;;;11.85;;
68806;SDS011;55800;54.272;18.558;2023-08-06T12:33:03;15.00;;;10.35;;
68806;SDS011;55800;54.272;18.558;2023-08-06T12:35:33;14.32;;;10.95;;
68806;SDS011;55800;54.272;18.558;2023-08-06T12:38:02;14.80;;;11.43;;
68806;SDS011;55800;54.272;18.558;2023-08-06T12:40:31;17.58;;;11.07;;
68806;SDS011;55800;54.272;18.558;2023-08-06T12:43:06;13.27;;;11.27;;
68806;SDS011;55800;54.272;18.558;2023-08-06T12:45:35;17.40;;;12.18;;
68806;SDS011;55800;54.272;18.558;2023-08-06T12:48:05;13.10;;;10.30;;
68806;SDS011;55800;54.272;18.558;2023-08-06T12:50:35;15.50;;;11.43;;
68806;SDS011;55800;54.272;18.558;2023-08-06T12:53:04;19.75;;;10.93;;
68806;SDS011;55800;54.272;18.558;2023-08-06T12:55:33;17.42;;;11.15;;
68806;SDS011;55800;54.272;18.558;2023-08-06T12:58:03;15.20;;;11.32;;
68806;SDS011;55800;54.272;18.558;2023-08-06T13:00:35;15.15;;;11.50;;
68806;SDS011;55800;54.272;18.558;2023-08-06T13:03:04;14.80;;;10.73;;
68806;SDS011;55800;54.272;18.558;2023-08-06T13:05:34;17.70;;;11.07;;
68806;SDS011;55800;54.272;18.558;2023-08-06T13:08:04;17.85;;;12.70;;
68806;SDS011;55800;54.272;18.558;2023-08-06T13:10:33;16.88;;;12.07;;
68806;SDS011;55800;54.272;18.558;2023-08-06T13:13:03;16.75;;;13.65;;
68806;SDS011;55800;54.272;18.558;2023-08-06T13:15:34;17.13;;;11.77;;
68806;SDS011;55800;54.272;18.558;2023-08-06T13:18:04;14.45;;;11.05;;
68806;SDS011;55800;54.272;18.558;2023-08-06T13:20:33;14.75;;;11.15;;
68806;SDS011;55800;54.272;18.558;2023-08-06T13:23:02;17.58;;;11.13;;
68806;SDS011;55800;54.272;18.558;2023-08-06T13:25:31;16.75;;;12.23;;
68806;SDS011;55800;54.272;18.558;2023-08-06T13:28:04;13.30;;;11.10;;
68806;SDS011;55800;54.272;18.558;2023-08-06T13:30:34;13.93;;;10.75;;
68806;SDS011;55800;54.272;18.558;2023-08-06T13:33:09;14.10;;;9.70;;
68806;SDS011;55800;54.272;18.558;2023-08-06T13:35:39;14.13;;;10.02;;
68806;SDS011;55800;54.272;18.558;2023-08-06T13:38:08;16.15;;;11.80;;
68806;SDS011;55800;54.272;18.558;2023-08-06T13:40:37;16.02;;;11.63;;
68806;SDS011;55800;54.272;18.558;2023-08-06T13:43:08;16.25;;;11.13;;
68806;SDS011;55800;54.272;18.558;2023-08-06T13:45:38;12.50;;;10.18;;
68806;SDS011;55800;54.272;18.558;2023-08-06T13:48:07;14.48;;;10.95;;
68806;SDS011;55800;54.272;18.558;2023-08-06T13:50:37;15.52;;;11.60;;
68806;SDS011;55800;54.272;18.558;2023-08-06T13:53:07;16.63;;;11.98;;
68806;SDS011;55800;54.272;18.558;2023-08-06T13:55:37;13.05;;;9.95;;
68806;SDS011;55800;54.272;18.558;2023-08-06T13:58:06;17.08;;;10.90;;
68806;SDS011;55800;54.272;18.558;2023-08-06T14:00:38;12.57;;;11.10;;
68806;SDS011;55800;54.272;18.558;2023-08-06T14:03:07;15.00;;;10.70;;
68806;SDS011;55800;54.272;18.558;2023-08-06T14:05:37;15.73;;;11.13;;
68806;SDS011;55800;54.272;18.558;2023-08-06T14:08:06;12.40;;;9.43;;
68806;SDS011;55800;54.272;18.558;2023-08-06T14:10:35;15.68;;;11.40;;
68806;SDS011;55800;54.272;18.558;2023-08-06T14:13:05;11.60;;;9.98;;
68806;SDS011;55800;54.272;18.558;2023-08-06T14:15:38;14.82;;;11.38;;
68806;SDS011;55800;54.272;18.558;2023-08-06T14:18:08;13.88;;;10.60;;
68806;SDS011;55800;54.272;18.558;2023-08-06T14:20:37;14.32;;;10.02;;
68806;SDS011;55800;54.272;18.558;2023-08-06T14:23:07;13.98;;;10.73;;
68806;SDS011;55800;54.272;18.558;2023-08-06T14:25:36;12.95;;;11.15;;
68806;SDS011;55800;54.272;18.558;2023-08-06T14:28:07;15.07;;;10.40;;
68806;SDS011;55800;54.272;18.558;2023-08-06T14:30:38;15.00;;;11.15;;
68806;SDS011;55800;54.272;18.558;2023-08-06T14:33:07;16.42;;;11.93;;
68806;SDS011;55800;54.272;18.558;2023-08-06T14:35:53;14.70;;;10.13;;
68806;SDS011;55800;54.272;18.558;2023-08-06T14:38:22;13.90;;;10.25;;
68806;SDS011;55800;54.272;18.558;2023-08-06T14:40:51;15.18;;;11.07;;
68806;SDS011;55800;54.272;18.558;2023-08-06T14:43:21;15.80;;;10.77;;
68806;SDS011;55800;54.272;18.558;2023-08-06T14:45:52;13.00;;;11.02;;
68806;SDS011;55800;54.272;18.558;2023-08-06T14:48:21;17.02;;;11.77;;
68806;SDS011;55800;54.272;18.558;2023-08-06T14:50:50;14.95;;;11.30;;
68806;SDS011;55800;54.272;18.558;2023-08-06T14:53:20;17.45;;;11.85;;
68806;SDS011;55800;54.272;18.558;2023-08-06T14:55:49;16.60;;;11.75;;
68806;SDS011;55800;54.272;18.558;2023-08-06T14:58:19;19.25;;;12.43;;
68806;SDS011;55800;54.272;18.558;2023-08-06T15:00:48;15.70;;;13.07;;
68806;SDS011;55800;54.272;18.558;2023-08-06T15:03:19;23.65;;;14.65;;
68806;SDS011;55800;54.272;18.558;2023-08-06T15:05:49;18.50;;;13.30;;
68806;SDS011;55800;54.272;18.558;2023-08-06T15:08:18;20.67;;;13.55;;
68806;SDS011;55800;54.272;18.558;2023-08-06T15:10:49;17.13;;;13.25;;
68806;SDS011;55800;54.272;18.558;2023-08-06T15:13:20;17.83;;;14.35;;
68806;SDS011;55800;54.272;18.558;2023-08-06T15:15:50;19.13;;;12.57;;
68806;SDS011;55800;54.272;18.558;2023-08-06T15:18:21;16.75;;;14.35;;
68806;SDS011;55800;54.272;18.558;2023-08-06T15:20:51;16.77;;;13.57;;